Pueblo West, CO (81007)

8:23 PM MDT on October 20, 2014 (GMT -0600)
Pueblo West | Change Station
CLOSE
Current Station
Personal Weather Station
Location: Pueblo West, CO
Elevation: 5043 ft
Nearby Weather Stations

Elev 5043 ft 38.32 °N, 104.76 °W | Updated 12 minutes ago

Clear
Clear
61.3 °F
Feels Like 61.3 °F
N
5.3
Wind Variable Wind from ENE

Today
High -- | Low -- °F
--% Chance of Precip.
Yesterday
High -- | Low -- °F
Precip. -- in
7:13 AM 6:14 PM
Waning Crescent, 8% visible
Pressure 30.03 in
Visibility 10.0 miles
Clouds Clear
Dew Point 40 °F
Humidity 45%
Rainfall 0.00 in
Snow Depth Not available.
UV 0.9 out of 12
Pollen 1.80 out of 12
Air Quality Not available.
Flu Activity Sporadic
METAR KPUB 210153Z 10008KT 10SM CLR 16/04 A3010 RMK AO2 SLP167 T01560039

More Conditions Fewer Conditions

Pressure 30.03 in
Visibility 10.0 miles
Clouds Clear
Dew Point 40 °F
Humidity 45%
Rainfall 0.00 in
Snow Depth Not available.
UV 0.9 out of 12
Pollen 1.80 out of 12
Air Quality Not available.
Flu Activity Sporadic
METAR KPUB 210153Z 10008KT 10SM CLR 16/04 A3010 RMK AO2 SLP167 T01560039

More Conditions Fewer Conditions

10-Day Weather Forecast

Almanac

Astronomy

Oct. 20, 2014 Rise Set
Actual Time 7:13 AM MDT 6:14 PM MDT
Civil Twilight 6:46 AM MDT 6:40 PM MDT
Nautical Twilight 6:15 AM MDT 7:11 PM MDT
Astronomical Twilight 5:44 AM MDT 7:42 PM MDT
Moon 4:06 AM MDT (10/20) 4:36 PM MDT (10/20)
Length of Visible Light 11h 54m
Length of Day
11h 01m
Tomorrow will be 2m 21s shorter.
Waning Crescent, 8% of the Moon is Illuminated
Today
Waning Crescent
Oct 23
New
Oct 30
First Quarter
Nov 6
Full
Nov 14
Last Quarter

Today's Extremes

State Highs State Lows

Community

WunderPhotos

Upload Photos

1,763,575 photos uploaded!

Nearby

Snow Depth

Station Depth Elevation
Glen Cove 1 in 11460 ft
Apishapa 0 in 10000 ft
Hoosier Pass 0 in 11400 ft
Jackwhacker Gulch 0 in 10960 ft
Park Cone 0 in 9600 ft

Earthquake Activity

City Distance Mag. Time & Date
Trinidad, Colorado 79 miles 2.5 10:01 PM MDT
2014-10-19
Trinidad, Colorado 92 miles 3.8 11:01 AM MDT
2014-10-17
Minimum magnitude displayed is 2.5.

Coastal Water Temperatures

Place Temperature
No Stations Reporting

Nearby Weather Stations